Flight Track Log - Related Links

Times and Time Zones

All times are in EDT time to prevent confusion due to time zone crossing. See the HAL118 flight status page for this flight to view local times or setup timezone preferences in your user account.

Time Position Orientation Groundspeed Altitude Reporting Facility
EDT Latitude Longitude Course Direction KTS MPH feet Rate Location/Type
13:20 21.3167 -157.9000 118° Southeast 180 207 1,100  Level Honolulu Center
13:21 21.2667 -157.8500 137° Southeast 220 253 3,100 1,800 Climbing Honolulu Center
13:22 21.2333 -157.8000 126° Southeast 270 311 4,700 2,000 Climbing Honolulu Center
13:23 21.1855 -157.7138 113° Southeast  Level FlightAware Approximate
13:23 21.1833 -157.7333 129° Southeast 280 322 7,100  Level Honolulu Center
13:24 21.1494 -157.6407 126° Southeast  Level FlightAware Approximate
13:24 21.1500 -157.6500 113° Southeast 290 334 9,200  Level Honolulu Center
13:25 21.1043 -157.5731 126° Southeast  Level FlightAware Approximate
13:25 21.1000 -157.5833 129° Southeast 300 345 11,000  Level Honolulu Center
13:26 21.0669 -157.5004 118° Southeast  Level FlightAware Approximate
13:26 21.0500 -157.5000 123° Southeast 340 391 12,100  Level Honolulu Center
13:27 20.9833 -157.4167 131° Southeast 370 426 13,700 1,650 Climbing Honolulu Center
13:28 20.9167 -157.3333 131° Southeast 380 437 15,400 1,800 Climbing Honolulu Center
13:29 20.8500 -157.2500 131° Southeast 390 449 17,300 1,700 Climbing Honolulu Center
13:30 20.7833 -157.1667 131° Southeast 390 449 18,800 1,850 Climbing Honolulu Center
13:31 20.7000 -157.0500 127° Southeast 390 449 21,000 1,100 Climbing Honolulu Center
13:32 20.6333 -156.9667 131° Southeast 410 472 21,000  Level Honolulu Center
13:33 20.5667 -156.8667 125° Southeast 410 472 21,000  Level Honolulu Center
13:34 20.5000 -156.7667 125° Southeast 410 472 21,000 -800 Level Honolulu Center
13:35 20.4167 -156.6833 137° Southeast 410 472 19,400 -1,950 Descending Honolulu Center
13:36 20.3500 -156.5833 125° Southeast 380 437 17,100 -2,450 Descending Honolulu Center
13:37 20.3000 -156.5000 123° Southeast 370 426 14,500 -2,550 Descending Honolulu Center
13:38 20.2333 -156.4167 130° Southeast 350 403 12,000 -1,900 Descending Honolulu Center
13:39 20.1667 -156.3500 137° Southeast 320 368 10,700 -1,550 Descending Honolulu Center
13:40 20.1167 -156.2833 129° Southeast 290 334 8,900 -1,636 Descending Honolulu Center
13:41 20.0667 -156.2333 137° Southeast 290 334 7,400 -1,736 Descending Honolulu Center
13:42 20.0000 -156.1833 145° Southeast 280 322 5,400 -1,850 Descending Honolulu Center
13:43 19.9500 -156.1333 137° Southeast 260 299 3,700 -1,700 Descending Honolulu Center

Login

Don't have an account? Register now (free) for customized features, flight alerts, and more!